createdAt,value
2018-08-14T00:00:15.800Z,16.54
2018-08-14T00:01:12.365Z,16.54
2018-08-14T00:02:13.391Z,16.54
2018-08-14T00:03:12.180Z,16.51
2018-08-14T00:04:12.182Z,16.66
2018-08-14T00:05:12.185Z,16.56
2018-08-14T00:06:12.162Z,16.58
2018-08-14T00:07:12.191Z,16.64
2018-08-14T00:08:12.154Z,16.60
2018-08-14T00:09:12.081Z,16.61
2018-08-14T00:10:12.113Z,16.65
2018-08-14T00:11:12.076Z,16.60
2018-08-14T00:12:12.036Z,16.64
2018-08-14T00:13:12.037Z,16.61
2018-08-14T00:14:12.064Z,16.64
2018-08-14T00:15:12.002Z,16.64
2018-08-14T00:16:11.998Z,16.61
2018-08-14T00:17:12.028Z,16.65
2018-08-14T00:18:11.967Z,16.68
2018-08-14T00:19:11.959Z,16.68
2018-08-14T00:20:11.955Z,16.72
2018-08-14T00:21:11.973Z,16.69
2018-08-14T00:22:11.928Z,16.69
2018-08-14T00:23:11.914Z,16.71
2018-08-14T00:24:14.885Z,16.69
2018-08-14T00:25:12.893Z,16.72
2018-08-14T00:26:11.895Z,16.72
2018-08-14T00:27:11.909Z,16.76
2018-08-14T00:28:11.865Z,16.79
2018-08-14T00:29:11.869Z,16.76
2018-08-14T00:30:12.063Z,16.69
2018-08-14T00:31:11.825Z,16.79
2018-08-14T00:32:11.811Z,16.72
2018-08-14T00:33:11.843Z,16.69
2018-08-14T00:34:11.814Z,16.75
2018-08-14T00:35:12.961Z,16.69
2018-08-14T00:36:11.804Z,16.65
2018-08-14T00:37:18.382Z,16.69
2018-08-14T00:38:12.380Z,16.71
2018-08-14T00:39:12.113Z,16.76
2018-08-14T00:40:11.769Z,16.69
2018-08-14T00:41:12.015Z,16.75
2018-08-14T00:42:11.742Z,16.71
2018-08-14T00:43:12.494Z,16.71
2018-08-14T00:44:13.346Z,16.74
2018-08-14T00:45:12.850Z,16.66
2018-08-14T00:46:11.663Z,16.71
2018-08-14T00:47:11.650Z,16.56
2018-08-14T00:48:11.642Z,16.49
2018-08-14T00:49:11.652Z,16.43
2018-08-14T00:50:11.615Z,16.33
2018-08-14T00:51:11.607Z,16.33
2018-08-14T00:52:11.592Z,16.24
2018-08-14T00:53:11.590Z,16.24
2018-08-14T00:54:11.573Z,16.23
2018-08-14T00:55:11.612Z,16.28
2018-08-14T00:56:12.388Z,16.15
2018-08-14T00:57:11.538Z,16.17
2018-08-14T00:58:12.413Z,16.15
2018-08-14T00:59:11.521Z,16.16
2018-08-14T01:00:11.522Z,16.17
2018-08-14T01:01:11.511Z,16.12
2018-08-14T01:02:11.505Z,16.26
2018-08-14T01:03:11.528Z,16.26
2018-08-14T01:04:11.459Z,16.29
2018-08-14T01:05:18.438Z,16.24
2018-08-14T01:06:12.013Z,16.29
2018-08-14T01:07:11.566Z,16.23
2018-08-14T01:08:12.474Z,16.17
2018-08-14T01:09:11.405Z,16.15
2018-08-14T01:10:11.418Z,16.20
2018-08-14T01:11:11.384Z,16.23
2018-08-14T01:12:12.458Z,16.26
2018-08-14T01:13:11.428Z,16.32
2018-08-14T01:14:11.702Z,16.32
2018-08-14T01:15:11.362Z,16.28
2018-08-14T01:16:13.918Z,16.31
2018-08-14T01:17:11.366Z,16.41
2018-08-14T01:18:26.939Z,16.46
2018-08-14T01:19:11.393Z,16.47
2018-08-14T01:20:13.954Z,16.43
2018-08-14T01:21:11.278Z,16.47
2018-08-14T01:22:47.323Z,16.43
2018-08-14T01:23:12.295Z,16.39
2018-08-14T01:24:32.530Z,16.47
2018-08-14T01:25:15.354Z,16.42
2018-08-14T01:26:11.910Z,16.42
2018-08-14T01:27:11.334Z,16.46
2018-08-14T01:28:11.593Z,16.41
2018-08-14T01:29:11.218Z,16.46
2018-08-14T01:30:11.187Z,16.47
2018-08-14T01:31:11.168Z,16.43
2018-08-14T01:32:11.334Z,16.31
2018-08-14T01:33:11.148Z,16.28
2018-08-14T01:34:11.195Z,16.26
2018-08-14T01:35:11.121Z,16.24
2018-08-14T01:36:11.140Z,16.24
2018-08-14T01:37:11.245Z,16.16
2018-08-14T01:38:11.180Z,16.21
2018-08-14T01:39:11.085Z,16.15
2018-08-14T01:40:11.149Z,16.15
2018-08-14T01:41:11.057Z,16.05
2018-08-14T01:42:11.052Z,16.00
2018-08-14T01:43:11.033Z,16.00
2018-08-14T01:44:11.026Z,15.92
2018-08-14T01:45:11.036Z,15.95
2018-08-14T01:46:11.004Z,15.94
2018-08-14T01:47:11.007Z,15.90
2018-08-14T01:48:10.999Z,15.94
2018-08-14T01:49:10.969Z,15.98
2018-08-14T01:50:10.980Z,15.92
2018-08-14T01:51:10.951Z,15.88
2018-08-14T01:52:12.847Z,15.92
2018-08-14T01:53:10.925Z,15.94
2018-08-14T01:54:10.920Z,15.95
2018-08-14T01:55:11.870Z,16.02
2018-08-14T01:56:10.949Z,16.08
2018-08-14T01:57:11.173Z,16.15
2018-08-14T01:58:10.869Z,16.23
2018-08-14T01:59:10.900Z,16.24
2018-08-14T02:00:10.847Z,16.23
2018-08-14T02:01:10.870Z,16.24
2018-08-14T02:02:12.697Z,16.17
2018-08-14T02:03:11.563Z,16.24
2018-08-14T02:04:10.887Z,16.38
2018-08-14T02:05:10.880Z,16.42
2018-08-14T02:06:10.787Z,16.41
2018-08-14T02:07:10.786Z,16.41
2018-08-14T02:08:10.758Z,16.42
2018-08-14T02:09:10.745Z,16.39
2018-08-14T02:10:10.733Z,16.38
2018-08-14T02:11:10.732Z,16.43
2018-08-14T02:12:10.742Z,16.46
2018-08-14T02:13:10.705Z,16.43
2018-08-14T02:14:10.706Z,16.43
2018-08-14T02:15:10.715Z,16.35
2018-08-14T02:16:13.685Z,16.29
2018-08-14T02:17:10.773Z,16.33
2018-08-14T02:18:13.513Z,16.21
2018-08-14T02:19:17.392Z,16.17
2018-08-14T02:20:10.666Z,16.21
2018-08-14T02:21:10.616Z,16.20
2018-08-14T02:22:10.601Z,16.17
2018-08-14T02:23:13.427Z,16.16
2018-08-14T02:24:10.591Z,16.21
2018-08-14T02:25:10.606Z,16.10
2018-08-14T02:26:10.560Z,16.21
2018-08-14T02:27:10.560Z,16.15
2018-08-14T02:28:12.326Z,16.16
2018-08-14T02:29:10.920Z,16.21
2018-08-14T02:30:11.840Z,16.20
2018-08-14T02:31:21.638Z,16.20
2018-08-14T02:32:11.434Z,16.13
2018-08-14T02:33:12.364Z,16.17
2018-08-14T02:34:17.691Z,16.23
2018-08-14T02:35:10.468Z,16.20
2018-08-14T02:36:10.857Z,16.23
2018-08-14T02:37:10.470Z,16.23
2018-08-14T02:38:10.446Z,16.05
2018-08-14T02:39:13.343Z,16.16
2018-08-14T02:40:10.665Z,16.13
2018-08-14T02:41:10.618Z,16.13
2018-08-14T02:42:10.459Z,16.02
2018-08-14T02:43:10.400Z,16.10
2018-08-14T02:44:10.934Z,16.10
2018-08-14T02:45:10.369Z,16.12
2018-08-14T02:46:11.431Z,16.20
2018-08-14T02:47:10.352Z,16.21
2018-08-14T02:48:10.889Z,16.23
2018-08-14T02:49:10.322Z,16.17
2018-08-14T02:50:12.259Z,16.23
2018-08-14T02:51:10.300Z,16.17
2018-08-14T02:52:10.456Z,16.13
2018-08-14T02:53:10.875Z,16.17
2018-08-14T02:54:11.542Z,16.20
2018-08-14T02:55:10.973Z,16.26
2018-08-14T02:56:11.151Z,16.17
2018-08-14T02:57:25.187Z,16.32
2018-08-14T02:58:11.250Z,16.24
2018-08-14T02:59:10.273Z,16.31
2018-08-14T03:00:10.974Z,16.31
2018-08-14T03:01:19.952Z,16.20
2018-08-14T03:02:10.504Z,16.31
2018-08-14T03:03:16.138Z,16.23
2018-08-14T03:04:11.378Z,16.16
2018-08-14T03:05:10.385Z,16.31
2018-08-14T03:06:10.448Z,16.26
2018-08-14T03:07:13.510Z,16.33
2018-08-14T03:08:10.258Z,16.33
2018-08-14T03:09:10.651Z,16.33
2018-08-14T03:10:10.601Z,16.26
2018-08-14T03:11:10.307Z,16.24
2018-08-14T03:12:11.095Z,16.32
2018-08-14T03:13:10.075Z,16.33
2018-08-14T03:14:10.346Z,16.32
2018-08-14T03:15:10.083Z,16.23
2018-08-14T03:16:10.092Z,16.31
2018-08-14T03:17:10.988Z,16.36
2018-08-14T03:18:13.286Z,16.36
2018-08-14T03:19:11.064Z,16.36
2018-08-14T03:20:10.931Z,16.38
2018-08-14T03:21:11.011Z,16.38
2018-08-14T03:22:09.980Z,16.28
2018-08-14T03:23:10.101Z,16.46
2018-08-14T03:24:09.944Z,16.41
2018-08-14T03:25:11.428Z,16.42
2018-08-14T03:26:09.988Z,16.36
2018-08-14T03:27:09.999Z,16.42
2018-08-14T03:28:11.268Z,16.49
2018-08-14T03:29:10.567Z,16.43
2018-08-14T03:30:10.027Z,16.42
2018-08-14T03:31:10.104Z,16.39
2018-08-14T03:32:09.992Z,16.38
2018-08-14T03:33:10.188Z,16.38
2018-08-14T03:34:09.842Z,16.51
2018-08-14T03:35:13.626Z,16.42
2018-08-14T03:36:09.869Z,16.43
2018-08-14T03:37:09.991Z,16.43
2018-08-14T03:38:09.905Z,16.41
2018-08-14T03:39:10.766Z,16.41
2018-08-14T03:40:09.975Z,16.42
2018-08-14T03:41:09.869Z,16.38
2018-08-14T03:42:09.738Z,16.41
2018-08-14T03:43:10.887Z,16.41
2018-08-14T03:44:09.869Z,16.39
2018-08-14T03:45:10.474Z,16.41
2018-08-14T03:46:09.710Z,16.41
2018-08-14T03:47:10.427Z,16.42
2018-08-14T03:48:20.572Z,16.42
2018-08-14T03:49:10.945Z,16.43
2018-08-14T03:50:11.039Z,16.39
2018-08-14T03:51:09.694Z,16.43
2018-08-14T03:52:09.648Z,16.41
2018-08-14T03:53:12.955Z,16.36
2018-08-14T03:54:10.129Z,16.42
2018-08-14T03:55:11.552Z,16.43
2018-08-14T03:56:09.724Z,16.43
2018-08-14T03:57:10.764Z,16.46
2018-08-14T03:58:12.443Z,16.39
2018-08-14T03:59:09.568Z,16.43
2018-08-14T04:00:09.722Z,16.47
2018-08-14T04:01:10.568Z,16.46
2018-08-14T04:02:09.511Z,16.50
2018-08-14T04:03:09.507Z,16.39
2018-08-14T04:04:24.471Z,16.49
2018-08-14T04:05:10.118Z,16.51
2018-08-14T04:06:10.188Z,16.46
2018-08-14T04:07:09.856Z,16.42
2018-08-14T04:08:16.463Z,16.49
2018-08-14T04:09:10.872Z,16.53
2018-08-14T04:10:11.625Z,16.47
2018-08-14T04:11:09.696Z,16.50
2018-08-14T04:12:18.362Z,16.51
2018-08-14T04:13:09.836Z,16.50
2018-08-14T04:14:17.771Z,16.42
2018-08-14T04:15:10.333Z,16.49
2018-08-14T04:16:12.706Z,16.53
2018-08-14T04:17:09.478Z,16.57
2018-08-14T04:18:12.871Z,16.46
2018-08-14T04:19:12.122Z,16.51
2018-08-14T04:20:09.502Z,16.47
2018-08-14T04:21:10.507Z,16.49
2018-08-14T04:22:09.379Z,16.56
2018-08-14T04:23:09.832Z,16.50
2018-08-14T04:24:14.468Z,16.51
2018-08-14T04:25:09.823Z,16.56
2018-08-14T04:26:10.079Z,16.54
2018-08-14T04:27:10.236Z,16.54
2018-08-14T04:28:09.467Z,16.53
2018-08-14T04:29:10.939Z,16.50
2018-08-14T04:30:09.606Z,16.51
2018-08-14T04:31:10.677Z,16.54
2018-08-14T04:32:10.431Z,16.58
2018-08-14T04:33:10.840Z,16.54
2018-08-14T04:34:20.155Z,16.65
2018-08-14T04:35:10.467Z,16.58
2018-08-14T04:36:10.142Z,16.54
2018-08-14T04:37:09.588Z,16.51
2018-08-14T04:38:12.880Z,16.53
2018-08-14T04:39:09.219Z,16.58
2018-08-14T04:40:09.871Z,16.56
2018-08-14T04:41:09.087Z,16.64
2018-08-14T04:42:12.568Z,16.61
2018-08-14T04:43:09.265Z,16.64
2018-08-14T04:44:09.156Z,16.68
2018-08-14T04:45:11.848Z,16.66
2018-08-14T04:46:10.089Z,16.66
2018-08-14T04:47:15.884Z,16.69
2018-08-14T04:48:09.076Z,16.65
2018-08-14T04:49:11.146Z,16.61
2018-08-14T04:50:10.831Z,16.57
2018-08-14T04:51:09.037Z,16.65
2018-08-14T04:52:09.024Z,16.58
2018-08-14T04:53:09.047Z,16.61
2018-08-14T04:54:09.932Z,16.53
2018-08-14T04:55:09.990Z,16.56
2018-08-14T04:56:09.620Z,16.64
2018-08-14T04:57:09.003Z,16.64
2018-08-14T04:58:08.938Z,16.60
2018-08-14T04:59:09.002Z,16.58
2018-08-14T05:00:10.599Z,16.54
2018-08-14T05:01:08.902Z,16.66
2018-08-14T05:02:09.825Z,16.61
2018-08-14T05:03:14.878Z,16.64
2018-08-14T05:04:08.935Z,16.58
2018-08-14T05:05:11.218Z,16.61
2018-08-14T05:06:15.394Z,16.68
2018-08-14T05:07:10.228Z,16.66
2018-08-14T05:08:08.789Z,16.68
2018-08-14T05:09:08.795Z,16.66
2018-08-14T05:10:08.766Z,16.71
2018-08-14T05:11:09.946Z,16.75
2018-08-14T05:12:08.748Z,16.76
2018-08-14T05:13:08.737Z,16.81
2018-08-14T05:14:10.493Z,16.79
2018-08-14T05:15:15.708Z,16.79
2018-08-14T05:16:09.460Z,16.84
2018-08-14T05:17:08.700Z,16.86
2018-08-14T05:18:08.671Z,16.76
2018-08-14T05:19:08.703Z,16.83
2018-08-14T05:20:08.659Z,16.74
2018-08-14T05:21:09.842Z,16.71
2018-08-14T05:22:09.752Z,16.79
2018-08-14T05:23:08.638Z,16.79
2018-08-14T05:24:10.443Z,16.78
2018-08-14T05:25:10.174Z,16.72
2018-08-14T05:26:12.403Z,16.69
2018-08-14T05:27:08.615Z,16.74
2018-08-14T05:28:08.886Z,16.71
2018-08-14T05:29:11.565Z,16.78
2018-08-14T05:30:23.634Z,16.74
2018-08-14T05:31:08.830Z,16.75
2018-08-14T05:32:08.838Z,16.74
2018-08-14T05:33:08.539Z,16.72
2018-08-14T05:34:08.686Z,16.78
2018-08-14T05:35:08.503Z,16.69
2018-08-14T05:36:08.957Z,16.68
2018-08-14T05:37:08.479Z,16.71
2018-08-14T05:38:08.806Z,16.69
2018-08-14T05:39:09.706Z,16.64
2018-08-14T05:40:08.502Z,16.65
2018-08-14T05:41:08.631Z,16.68
2018-08-14T05:42:08.912Z,16.65
2018-08-14T05:43:08.631Z,16.69
2018-08-14T05:44:23.971Z,16.69
2018-08-14T05:45:12.322Z,16.69
2018-08-14T05:46:08.454Z,16.68
2018-08-14T05:47:08.389Z,16.72
2018-08-14T05:48:08.354Z,16.69
2018-08-14T05:49:08.389Z,16.69
2018-08-14T05:50:08.464Z,16.71
2018-08-14T05:51:08.368Z,16.74
2018-08-14T05:52:09.439Z,16.74
2018-08-14T05:53:11.160Z,16.72
2018-08-14T05:54:08.626Z,16.65
2018-08-14T05:55:11.341Z,16.66
2018-08-14T05:56:09.427Z,16.72
2018-08-14T05:57:09.134Z,16.84
2018-08-14T05:58:08.245Z,16.79
2018-08-14T05:59:08.334Z,16.76
2018-08-14T06:00:08.240Z,16.89
2018-08-14T06:01:08.206Z,16.83
2018-08-14T06:02:08.357Z,16.79
2018-08-14T06:03:09.463Z,16.89
2018-08-14T06:04:08.203Z,16.93
2018-08-14T06:05:08.207Z,16.93
2018-08-14T06:06:08.255Z,16.81
2018-08-14T06:07:12.485Z,16.87
2018-08-14T06:08:10.037Z,16.86
2018-08-14T06:09:08.586Z,16.87
2018-08-14T06:10:08.145Z,16.86
2018-08-14T06:11:11.098Z,16.86
2018-08-14T06:12:08.099Z,16.87
2018-08-14T06:13:08.507Z,16.87
2018-08-14T06:14:08.125Z,16.81
2018-08-14T06:15:08.153Z,16.86
2018-08-14T06:16:08.280Z,16.76
2018-08-14T06:17:08.400Z,16.84
2018-08-14T06:18:08.027Z,16.86
2018-08-14T06:19:08.031Z,16.78
2018-08-14T06:20:08.820Z,16.90
2018-08-14T06:21:08.040Z,16.87
2018-08-14T06:22:07.975Z,16.91
2018-08-14T06:23:08.917Z,16.87
2018-08-14T06:24:10.436Z,16.86
2018-08-14T06:25:10.689Z,16.96
2018-08-14T06:26:08.199Z,16.97
2018-08-14T06:27:08.603Z,16.99
2018-08-14T06:28:08.339Z,16.91
2018-08-14T06:29:11.398Z,16.99
2018-08-14T06:30:11.715Z,16.97
2018-08-14T06:31:08.845Z,17.05
2018-08-14T06:32:09.366Z,17.02
2018-08-14T06:33:07.857Z,17.11
2018-08-14T06:34:12.812Z,17.08
2018-08-14T06:35:08.183Z,17.12
2018-08-14T06:36:09.478Z,17.11
2018-08-14T06:37:08.650Z,17.14
2018-08-14T06:38:08.877Z,17.16
2018-08-14T06:39:08.087Z,17.22
2018-08-14T06:40:10.367Z,17.30
2018-08-14T06:41:09.158Z,17.24
2018-08-14T06:42:07.908Z,17.42
2018-08-14T06:43:07.765Z,17.44
2018-08-14T06:44:09.423Z,17.49
2018-08-14T06:45:11.707Z,17.57
2018-08-14T06:46:07.808Z,17.59
2018-08-14T06:47:08.280Z,17.67
2018-08-14T06:48:10.952Z,17.59
2018-08-14T06:49:10.141Z,17.56
2018-08-14T06:50:07.767Z,17.64
2018-08-14T06:51:08.636Z,17.59
2018-08-14T06:52:07.725Z,17.63
2018-08-14T06:53:08.605Z,17.54
2018-08-14T06:54:24.502Z,17.59
2018-08-14T06:55:07.707Z,17.52
2018-08-14T06:56:07.911Z,17.42
2018-08-14T06:57:07.755Z,17.41
2018-08-14T06:58:07.819Z,17.38
2018-08-14T06:59:08.424Z,17.46
2018-08-14T07:00:07.588Z,17.36
2018-08-14T07:01:07.976Z,17.30
2018-08-14T07:02:07.865Z,17.36
2018-08-14T07:03:07.676Z,17.33
2018-08-14T07:04:31.175Z,17.39
2018-08-14T07:05:08.080Z,17.41
2018-08-14T07:06:16.402Z,17.39
2018-08-14T07:07:13.966Z,17.23
2018-08-14T07:08:07.491Z,17.30
2018-08-14T07:09:07.543Z,17.41
2018-08-14T07:10:40.510Z,17.41
2018-08-14T07:11:10.340Z,17.49
2018-08-14T07:12:10.515Z,17.56
2018-08-14T07:13:09.163Z,17.56
2018-08-14T07:14:07.524Z,17.56
2018-08-14T07:15:07.441Z,17.68
2018-08-14T07:16:14.534Z,17.65
2018-08-14T07:17:11.081Z,17.57
2018-08-14T07:18:08.751Z,17.68
2018-08-14T07:19:15.537Z,17.70
2018-08-14T07:20:09.521Z,17.70
2018-08-14T07:21:08.997Z,17.67
2018-08-14T07:22:08.732Z,17.74
2018-08-14T07:23:31.168Z,17.78
2018-08-14T07:24:10.784Z,17.72
2018-08-14T07:25:18.651Z,17.71
2018-08-14T07:26:09.298Z,17.60
2018-08-14T07:27:08.820Z,17.64
2018-08-14T07:28:07.707Z,17.59
2018-08-14T07:29:07.483Z,17.59
2018-08-14T07:30:09.293Z,17.64
2018-08-14T07:31:09.362Z,17.59
2018-08-14T07:32:10.792Z,17.63
2018-08-14T07:33:11.792Z,17.60
2018-08-14T07:34:44.098Z,17.63
2018-08-14T07:35:31.089Z,17.82
2018-08-14T07:36:30.582Z,17.83
2018-08-14T07:37:07.411Z,17.82
2018-08-14T07:38:08.275Z,17.80
2018-08-14T07:39:10.119Z,17.83
2018-08-14T07:40:08.973Z,17.89
2018-08-14T07:41:08.820Z,17.90
2018-08-14T07:42:08.988Z,17.83
2018-08-14T07:43:10.772Z,17.71
2018-08-14T07:44:15.178Z,17.60
2018-08-14T07:45:31.361Z,17.52
2018-08-14T07:46:10.677Z,17.46
2018-08-14T07:47:10.181Z,17.51
2018-08-14T07:48:12.436Z,17.52
2018-08-14T07:49:10.362Z,17.48
2018-08-14T07:50:29.866Z,17.42
2018-08-14T07:51:16.965Z,17.44
2018-08-14T07:52:25.596Z,17.42
2018-08-14T07:53:11.601Z,17.38
2018-08-14T07:54:34.895Z,17.36
2018-08-14T07:55:09.073Z,17.24
2018-08-14T07:56:14.211Z,17.26
2018-08-14T07:57:09.424Z,17.20
2018-08-14T07:58:09.637Z,17.19
2018-08-14T07:59:08.925Z,17.11
2018-08-14T08:00:09.856Z,17.14
2018-08-14T08:01:07.507Z,17.15
2018-08-14T08:02:11.065Z,17.15
2018-08-14T08:03:09.074Z,17.14
2018-08-14T08:04:09.884Z,17.20
2018-08-14T08:05:06.896Z,17.27
2018-08-14T08:06:09.087Z,17.38
2018-08-14T08:07:08.923Z,17.46
2018-08-14T08:08:25.401Z,17.51
2018-08-14T08:09:12.676Z,17.64
2018-08-14T08:10:26.428Z,17.74
2018-08-14T08:11:10.970Z,17.80
2018-08-14T08:12:08.723Z,17.89
2018-08-14T08:13:09.945Z,18.05
2018-08-14T08:14:09.321Z,18.15
2018-08-14T08:15:47.349Z,18.11
2018-08-14T08:16:09.151Z,18.08
2018-08-14T08:17:09.433Z,17.94
2018-08-14T08:18:17.206Z,17.83
2018-08-14T08:19:10.599Z,17.82
2018-08-14T08:20:09.474Z,17.80
2018-08-14T08:21:15.445Z,17.76
2018-08-14T08:22:23.823Z,17.83
2018-08-14T08:23:09.597Z,17.86
2018-08-14T08:24:09.707Z,18.01
2018-08-14T08:25:17.293Z,18.18
2018-08-14T08:26:29.206Z,18.40
2018-08-14T08:27:09.113Z,18.59
2018-08-14T08:28:07.584Z,18.88
2018-08-14T08:29:10.254Z,19.24
2018-08-14T08:30:08.314Z,19.39
2018-08-14T08:31:08.123Z,19.74
2018-08-14T08:32:09.778Z,19.70
2018-08-14T08:33:11.721Z,19.89
2018-08-14T08:34:23.437Z,20.34
2018-08-14T08:35:10.909Z,20.59
2018-08-14T08:36:11.323Z,20.63
2018-08-14T08:37:08.949Z,20.70
2018-08-14T08:38:07.515Z,20.43
2018-08-14T08:39:38.339Z,20.32
2018-08-14T08:40:08.098Z,20.18
2018-08-14T08:41:09.415Z,20.00
2018-08-14T08:42:06.972Z,19.84
2018-08-14T08:43:07.381Z,19.81
2018-08-14T08:44:14.460Z,19.69
2018-08-14T08:45:06.625Z,19.47
2018-08-14T08:46:10.163Z,19.36
2018-08-14T08:47:09.145Z,19.36
2018-08-14T08:48:22.620Z,19.54
2018-08-14T08:49:09.708Z,19.55
2018-08-14T08:50:06.447Z,20.39
2018-08-14T08:51:06.473Z,20.88
2018-08-14T08:52:07.181Z,20.95
2018-08-14T08:53:09.182Z,20.80
2018-08-14T08:54:08.908Z,20.60
2018-08-14T08:55:20.538Z,20.44
2018-08-14T08:56:06.371Z,20.39
2018-08-14T08:57:06.389Z,20.19
2018-08-14T08:58:10.814Z,20.00
2018-08-14T08:59:06.292Z,19.76
2018-08-14T09:00:06.476Z,19.77
2018-08-14T09:01:07.908Z,19.81
2018-08-14T09:02:06.305Z,19.91
2018-08-14T09:03:06.923Z,19.92
2018-08-14T09:04:27.692Z,20.04
2018-08-14T09:05:08.340Z,20.32
2018-08-14T09:06:13.284Z,20.52
2018-08-14T09:07:06.461Z,20.72
2018-08-14T09:08:07.467Z,20.93
2018-08-14T09:09:07.579Z,21.21
2018-08-14T09:10:15.051Z,21.55
2018-08-14T09:11:06.264Z,21.60
2018-08-14T09:12:08.220Z,21.64
2018-08-14T09:13:07.511Z,21.48
2018-08-14T09:14:06.552Z,21.55
2018-08-14T09:15:07.186Z,21.61
2018-08-14T09:16:06.118Z,21.35
2018-08-14T09:17:06.528Z,21.46
2018-08-14T09:18:10.757Z,21.36
2018-08-14T09:19:06.879Z,21.30
2018-08-14T09:20:06.143Z,21.58
2018-08-14T09:21:28.050Z,21.73
2018-08-14T09:22:06.152Z,21.51
2018-08-14T09:23:07.851Z,21.32
2018-08-14T09:24:08.509Z,20.99
2018-08-14T09:25:12.989Z,20.92
2018-08-14T09:26:09.110Z,20.77
2018-08-14T09:27:06.012Z,20.74
2018-08-14T09:28:13.162Z,20.96
2018-08-14T09:29:06.108Z,21.18
2018-08-14T09:30:07.619Z,21.43
2018-08-14T09:31:08.091Z,21.42
2018-08-14T09:32:07.814Z,21.42
2018-08-14T09:33:06.285Z,21.11
2018-08-14T09:34:05.974Z,20.85
2018-08-14T09:35:05.925Z,20.72
2018-08-14T09:36:10.201Z,20.41
2018-08-14T09:37:08.782Z,20.37
2018-08-14T09:38:08.592Z,20.10
2018-08-14T09:39:06.973Z,20.02
2018-08-14T09:40:24.871Z,19.84
2018-08-14T09:41:05.842Z,19.85
2018-08-14T09:42:05.845Z,19.64
2018-08-14T09:43:06.738Z,19.59
2018-08-14T09:44:09.922Z,19.69
2018-08-14T09:45:10.560Z,19.62
2018-08-14T09:46:05.787Z,19.76
2018-08-14T09:47:05.772Z,20.00
2018-08-14T09:48:06.772Z,20.36
2018-08-14T09:49:05.773Z,20.66
2018-08-14T09:50:05.769Z,20.88
2018-08-14T09:51:10.196Z,21.05
2018-08-14T09:52:09.584Z,21.24
2018-08-14T09:53:08.377Z,21.36
2018-08-14T09:54:05.998Z,21.55
2018-08-14T09:55:07.437Z,21.72
2018-08-14T09:56:05.678Z,21.80
2018-08-14T09:57:05.687Z,21.79
2018-08-14T09:58:08.397Z,21.80
2018-08-14T09:59:06.912Z,21.73
2018-08-14T10:00:06.800Z,21.73
2018-08-14T10:01:05.617Z,21.64
2018-08-14T10:02:05.624Z,21.54
2018-08-14T10:03:05.734Z,21.37
2018-08-14T10:04:06.600Z,21.09
2018-08-14T10:05:07.440Z,21.00
2018-08-14T10:06:06.390Z,20.96
2018-08-14T10:07:05.660Z,21.20
2018-08-14T10:08:05.852Z,21.18
2018-08-14T10:09:05.599Z,21.27
2018-08-14T10:10:06.003Z,21.14
2018-08-14T10:11:05.601Z,21.20
2018-08-14T10:12:12.678Z,21.15
2018-08-14T10:13:05.605Z,21.17
2018-08-14T10:14:05.592Z,21.21
2018-08-14T10:15:13.108Z,21.20
2018-08-14T10:16:05.861Z,21.21
2018-08-14T10:17:05.467Z,21.39
2018-08-14T10:18:05.426Z,21.61
2018-08-14T10:19:05.458Z,22.10
2018-08-14T10:20:05.494Z,22.04
2018-08-14T10:21:05.442Z,22.30
2018-08-14T10:22:05.462Z,22.28
2018-08-14T10:23:06.633Z,22.20
2018-08-14T10:24:05.420Z,22.04
2018-08-14T10:25:05.936Z,21.89
2018-08-14T10:26:05.373Z,21.88
2018-08-14T10:27:05.396Z,21.61
2018-08-14T10:28:05.384Z,21.54
2018-08-14T10:29:05.787Z,21.32
2018-08-14T10:30:06.548Z,21.27
2018-08-14T10:31:05.903Z,20.97
2018-08-14T10:32:05.305Z,20.85
2018-08-14T10:33:05.323Z,20.93
2018-08-14T10:34:05.340Z,20.90
2018-08-14T10:35:05.284Z,20.85
2018-08-14T10:36:05.285Z,20.87
2018-08-14T10:37:05.470Z,20.95
2018-08-14T10:38:06.133Z,21.02
2018-08-14T10:39:05.327Z,21.05
2018-08-14T10:40:05.273Z,21.05
2018-08-14T10:41:05.178Z,21.17
2018-08-14T10:42:05.182Z,21.33
2018-08-14T10:43:05.206Z,21.46
2018-08-14T10:44:05.168Z,21.66
2018-08-14T10:45:05.152Z,21.82
2018-08-14T10:46:06.849Z,21.99
2018-08-14T10:47:06.274Z,22.06
2018-08-14T10:48:05.180Z,22.22
2018-08-14T10:49:05.098Z,22.29
2018-08-14T10:50:05.442Z,22.32
2018-08-14T10:51:05.093Z,22.54
2018-08-14T10:52:05.138Z,22.72
2018-08-14T10:53:06.484Z,22.91
2018-08-14T10:54:05.999Z,23.02
2018-08-14T10:55:10.557Z,23.08
2018-08-14T10:56:05.060Z,22.96
2018-08-14T10:57:05.105Z,22.75
2018-08-14T10:58:05.083Z,22.72
2018-08-14T10:59:05.910Z,22.91
2018-08-14T11:00:04.993Z,22.88
2018-08-14T11:01:05.009Z,23.02
2018-08-14T11:02:08.188Z,23.36
2018-08-14T11:03:05.004Z,23.21
2018-08-14T11:04:04.994Z,23.20
2018-08-14T11:05:04.994Z,23.09
2018-08-14T11:06:04.930Z,23.21
2018-08-14T11:07:05.091Z,23.21
2018-08-14T11:08:05.273Z,23.23
2018-08-14T11:09:05.380Z,23.15
2018-08-14T11:10:08.415Z,23.27
2018-08-14T11:11:05.111Z,23.58
2018-08-14T11:12:05.057Z,23.87
2018-08-14T11:13:05.244Z,23.96
2018-08-14T11:14:05.077Z,23.91
2018-08-14T11:15:04.884Z,23.95
2018-08-14T11:16:05.253Z,23.73
2018-08-14T11:21:00.931Z,23.12
2018-08-14T11:22:08.275Z,23.06
2018-08-14T11:23:01.625Z,23.08
2018-08-14T11:24:00.760Z,23.39
2018-08-14T11:25:00.756Z,23.56
2018-08-14T11:26:02.309Z,23.61
2018-08-14T11:27:01.433Z,23.27
2018-08-14T11:28:00.738Z,23.03
2018-08-14T11:29:01.524Z,22.96
2018-08-14T11:30:00.782Z,22.91
2018-08-14T11:31:00.920Z,22.81
2018-08-14T11:32:00.785Z,22.96
2018-08-14T11:33:00.721Z,22.99
2018-08-14T11:34:00.660Z,23.28
2018-08-14T11:35:00.703Z,23.62
2018-08-14T11:36:01.512Z,23.58
2018-08-14T11:37:00.822Z,23.48
2018-08-14T11:38:00.714Z,23.23
2018-08-14T11:39:00.719Z,23.21
2018-08-14T11:40:00.724Z,23.63
2018-08-14T11:41:00.647Z,23.56
2018-08-14T11:42:00.591Z,23.34
2018-08-14T11:43:00.557Z,23.34
2018-08-14T11:44:00.535Z,23.88
2018-08-14T11:45:00.531Z,25.10
2018-08-14T11:46:00.541Z,24.76
2018-08-14T11:47:00.530Z,24.45
2018-08-14T11:48:00.501Z,24.23
2018-08-14T11:49:00.480Z,24.50
2018-08-14T11:50:00.488Z,24.28
2018-08-14T11:51:00.563Z,23.86
2018-08-14T11:52:00.448Z,23.92
2018-08-14T11:53:00.438Z,23.81
2018-08-14T11:54:00.503Z,23.84
2018-08-14T11:55:00.409Z,24.42
2018-08-14T11:56:00.422Z,25.63
2018-08-14T11:57:00.409Z,25.41
2018-08-14T11:58:00.389Z,25.69
2018-08-14T11:59:00.394Z,25.32
2018-08-14T12:00:00.363Z,26.22
2018-08-14T12:01:00.374Z,26.34
2018-08-14T12:02:00.367Z,26.78
2018-08-14T12:03:07.230Z,26.43
2018-08-14T12:04:00.333Z,25.98
2018-08-14T12:05:00.320Z,26.78
2018-08-14T12:06:00.340Z,26.40
2018-08-14T12:07:00.899Z,25.70
2018-08-14T12:08:00.280Z,25.31
2018-08-14T12:09:00.311Z,24.77
2018-08-14T12:10:00.296Z,24.39
2018-08-14T12:11:00.389Z,24.14
2018-08-14T12:12:00.239Z,23.92
2018-08-14T12:13:00.325Z,23.66
2018-08-14T12:14:00.212Z,23.61
2018-08-14T12:15:00.881Z,23.69
2018-08-14T12:16:00.211Z,23.65
2018-08-14T12:17:00.186Z,25.21
2018-08-14T12:18:00.278Z,25.06
2018-08-14T12:19:00.220Z,24.58
2018-08-14T12:20:00.301Z,24.23
2018-08-14T12:21:00.458Z,23.92
2018-08-14T12:22:00.249Z,23.66
2018-08-14T12:23:00.122Z,23.40
2018-08-14T12:24:00.125Z,23.34
2018-08-14T12:25:00.107Z,23.32
2018-08-14T12:26:00.456Z,23.44
2018-08-14T12:27:00.111Z,23.78
2018-08-14T12:28:00.100Z,23.91
2018-08-14T12:29:00.058Z,23.84
2018-08-14T12:30:00.055Z,24.61
2018-08-14T12:31:00.059Z,25.81
2018-08-14T12:32:00.028Z,26.97
2018-08-14T12:33:00.060Z,27.07
2018-08-14T12:34:00.000Z,27.82
2018-08-14T12:35:00.035Z,28.48
2018-08-14T12:36:00.001Z,28.72
2018-08-14T12:36:59.975Z,29.23
2018-08-14T12:37:59.967Z,28.10
2018-08-14T12:38:59.963Z,27.58
2018-08-14T12:39:59.986Z,27.35
2018-08-14T12:40:59.989Z,26.28
2018-08-14T12:41:59.918Z,26.00
2018-08-14T12:42:59.919Z,26.21
2018-08-14T12:43:59.922Z,25.83
2018-08-14T12:44:59.889Z,25.73
2018-08-14T12:46:00.666Z,26.77
2018-08-14T12:46:59.880Z,26.83
2018-08-14T12:48:00.142Z,26.95
2018-08-14T12:49:00.031Z,26.60
2018-08-14T12:49:59.848Z,26.55
2018-08-14T12:50:59.857Z,27.44
2018-08-14T12:51:59.848Z,27.14
2018-08-14T12:52:59.830Z,26.84
2018-08-14T12:53:59.793Z,27.21
2018-08-14T12:55:00.194Z,26.83
2018-08-14T12:55:59.835Z,26.97